sensor_id;sensor_type;location;lat;lon;timestamp;temperature;humidity
37412;DHT22;23278;52.110;6.050;2022-08-19T00:00:18;18.20;98.60
37412;DHT22;23278;52.110;6.050;2022-08-19T00:02:44;18.10;98.70
37412;DHT22;23278;52.110;6.050;2022-08-19T00:05:12;18.10;98.80
37412;DHT22;23278;52.110;6.050;2022-08-19T00:07:39;18.10;98.80
37412;DHT22;23278;52.110;6.050;2022-08-19T00:10:06;18.10;98.80
37412;DHT22;23278;52.110;6.050;2022-08-19T00:12:33;18.00;98.80
37412;DHT22;23278;52.110;6.050;2022-08-19T00:14:59;18.00;98.90
37412;DHT22;23278;52.110;6.050;2022-08-19T00:17:25;17.90;98.90
37412;DHT22;23278;52.110;6.050;2022-08-19T00:19:51;17.90;98.90
37412;DHT22;23278;52.110;6.050;2022-08-19T00:22:18;17.90;99.00
37412;DHT22;23278;52.110;6.050;2022-08-19T00:24:44;17.90;99.00
37412;DHT22;23278;52.110;6.050;2022-08-19T00:27:11;17.80;99.00
37412;DHT22;23278;52.110;6.050;2022-08-19T00:29:38;17.80;99.10
37412;DHT22;23278;52.110;6.050;2022-08-19T00:32:04;17.70;99.10
37412;DHT22;23278;52.110;6.050;2022-08-19T00:34:30;17.80;99.20
37412;DHT22;23278;52.110;6.050;2022-08-19T00:36:56;17.70;99.20
37412;DHT22;23278;52.110;6.050;2022-08-19T00:39:23;17.60;99.20
37412;DHT22;23278;52.110;6.050;2022-08-19T00:41:50;17.60;99.20
37412;DHT22;23278;52.110;6.050;2022-08-19T00:44:19;17.60;99.20
37412;DHT22;23278;52.110;6.050;2022-08-19T00:46:47;17.60;99.20
37412;DHT22;23278;52.110;6.050;2022-08-19T00:49:20;17.50;99.20
37412;DHT22;23278;52.110;6.050;2022-08-19T00:51:51;17.50;99.30
37412;DHT22;23278;52.110;6.050;2022-08-19T00:54:18;17.50;99.30
37412;DHT22;23278;52.110;6.050;2022-08-19T00:56:45;17.50;99.30
37412;DHT22;23278;52.110;6.050;2022-08-19T00:59:11;17.50;99.40
37412;DHT22;23278;52.110;6.050;2022-08-19T01:01:39;17.50;99.40
37412;DHT22;23278;52.110;6.050;2022-08-19T01:04:05;17.40;99.50
37412;DHT22;23278;52.110;6.050;2022-08-19T01:06:32;17.50;99.50
37412;DHT22;23278;52.110;6.050;2022-08-19T01:08:59;17.40;99.50
37412;DHT22;23278;52.110;6.050;2022-08-19T01:11:30;17.40;99.50
37412;DHT22;23278;52.110;6.050;2022-08-19T01:13:57;17.40;99.60
37412;DHT22;23278;52.110;6.050;2022-08-19T01:16:25;17.40;99.70
37412;DHT22;23278;52.110;6.050;2022-08-19T01:18:52;17.30;99.90
37412;DHT22;23278;52.110;6.050;2022-08-19T01:21:32;17.30;99.70
37412;DHT22;23278;52.110;6.050;2022-08-19T01:23:59;17.30;99.80
37412;DHT22;23278;52.110;6.050;2022-08-19T01:26:27;17.20;99.70
37412;DHT22;23278;52.110;6.050;2022-08-19T01:28:56;17.10;99.70
37412;DHT22;23278;52.110;6.050;2022-08-19T01:31:25;17.10;99.70
37412;DHT22;23278;52.110;6.050;2022-08-19T01:33:52;17.00;99.70
37412;DHT22;23278;52.110;6.050;2022-08-19T01:36:34;17.00;99.90
37412;DHT22;23278;52.110;6.050;2022-08-19T01:39:04;17.00;99.90
37412;DHT22;23278;52.110;6.050;2022-08-19T01:41:30;17.00;99.90
37412;DHT22;23278;52.110;6.050;2022-08-19T01:43:57;17.10;99.90
37412;DHT22;23278;52.110;6.050;2022-08-19T01:46:23;17.20;99.70
37412;DHT22;23278;52.110;6.050;2022-08-19T01:48:49;17.20;99.60
37412;DHT22;23278;52.110;6.050;2022-08-19T01:51:15;17.30;99.60
37412;DHT22;23278;52.110;6.050;2022-08-19T01:53:41;17.30;99.70
37412;DHT22;23278;52.110;6.050;2022-08-19T01:56:08;17.40;99.60
37412;DHT22;23278;52.110;6.050;2022-08-19T01:58:38;17.40;99.50
37412;DHT22;23278;52.110;6.050;2022-08-19T02:01:06;17.30;99.50
37412;DHT22;23278;52.110;6.050;2022-08-19T02:03:33;17.30;99.60
37412;DHT22;23278;52.110;6.050;2022-08-19T02:06:01;17.30;99.60
37412;DHT22;23278;52.110;6.050;2022-08-19T02:08:29;17.30;99.70
37412;DHT22;23278;52.110;6.050;2022-08-19T02:10:56;17.30;99.70
37412;DHT22;23278;52.110;6.050;2022-08-19T02:13:23;17.20;99.80
37412;DHT22;23278;52.110;6.050;2022-08-19T02:15:49;17.20;99.90
37412;DHT22;23278;52.110;6.050;2022-08-19T02:18:15;17.20;99.90
37412;DHT22;23278;52.110;6.050;2022-08-19T02:20:43;17.10;99.90
37412;DHT22;23278;52.110;6.050;2022-08-19T02:23:11;17.00;99.90
37412;DHT22;23278;52.110;6.050;2022-08-19T02:25:38;17.00;99.90
37412;DHT22;23278;52.110;6.050;2022-08-19T02:28:05;16.90;99.90
37412;DHT22;23278;52.110;6.050;2022-08-19T02:30:31;16.90;99.90
37412;DHT22;23278;52.110;6.050;2022-08-19T02:32:56;16.90;99.90
37412;DHT22;23278;52.110;6.050;2022-08-19T02:35:23;16.80;99.90
37412;DHT22;23278;52.110;6.050;2022-08-19T02:37:49;16.80;99.90
37412;DHT22;23278;52.110;6.050;2022-08-19T02:40:34;16.80;99.90
37412;DHT22;23278;52.110;6.050;2022-08-19T02:43:06;16.70;99.90
37412;DHT22;23278;52.110;6.050;2022-08-19T02:45:37;16.70;99.90
37412;DHT22;23278;52.110;6.050;2022-08-19T02:48:03;16.70;99.90
37412;DHT22;23278;52.110;6.050;2022-08-19T02:50:31;16.70;99.90
37412;DHT22;23278;52.110;6.050;2022-08-19T02:52:57;16.70;99.90
37412;DHT22;23278;52.110;6.050;2022-08-19T02:55:23;16.60;99.90
37412;DHT22;23278;52.110;6.050;2022-08-19T02:57:49;16.60;99.90
37412;DHT22;23278;52.110;6.050;2022-08-19T03:00:15;16.60;99.90
37412;DHT22;23278;52.110;6.050;2022-08-19T03:02:50;16.60;99.90
37412;DHT22;23278;52.110;6.050;2022-08-19T03:05:16;16.50;99.90
37412;DHT22;23278;52.110;6.050;2022-08-19T03:07:42;16.50;99.90
37412;DHT22;23278;52.110;6.050;2022-08-19T03:10:08;16.50;99.90
37412;DHT22;23278;52.110;6.050;2022-08-19T03:12:37;16.50;99.90
37412;DHT22;23278;52.110;6.050;2022-08-19T03:15:07;16.50;99.90
37412;DHT22;23278;52.110;6.050;2022-08-19T03:17:34;16.40;99.90
37412;DHT22;23278;52.110;6.050;2022-08-19T03:20:00;16.40;99.90
37412;DHT22;23278;52.110;6.050;2022-08-19T03:22:25;16.40;99.90
37412;DHT22;23278;52.110;6.050;2022-08-19T03:24:51;16.40;99.90
37412;DHT22;23278;52.110;6.050;2022-08-19T03:27:17;16.40;99.90
37412;DHT22;23278;52.110;6.050;2022-08-19T03:29:43;16.30;99.90
37412;DHT22;23278;52.110;6.050;2022-08-19T03:32:10;16.30;99.90
37412;DHT22;23278;52.110;6.050;2022-08-19T03:34:37;16.30;99.90
37412;DHT22;23278;52.110;6.050;2022-08-19T03:37:08;16.30;99.90
37412;DHT22;23278;52.110;6.050;2022-08-19T03:39:36;16.20;99.90
37412;DHT22;23278;52.110;6.050;2022-08-19T03:42:03;16.20;99.90
37412;DHT22;23278;52.110;6.050;2022-08-19T03:44:30;16.20;99.90
37412;DHT22;23278;52.110;6.050;2022-08-19T03:46:59;16.20;99.90
37412;DHT22;23278;52.110;6.050;2022-08-19T03:49:28;16.20;99.90
37412;DHT22;23278;52.110;6.050;2022-08-19T03:51:56;16.10;99.90
37412;DHT22;23278;52.110;6.050;2022-08-19T03:54:23;16.10;99.90
37412;DHT22;23278;52.110;6.050;2022-08-19T03:56:53;16.10;99.90
37412;DHT22;23278;52.110;6.050;2022-08-19T03:59:25;16.10;99.90
37412;DHT22;23278;52.110;6.050;2022-08-19T04:01:54;16.00;99.90
37412;DHT22;23278;52.110;6.050;2022-08-19T04:04:20;16.00;99.90
37412;DHT22;23278;52.110;6.050;2022-08-19T04:06:47;16.10;99.90
37412;DHT22;23278;52.110;6.050;2022-08-19T04:09:14;16.20;99.90
37412;DHT22;23278;52.110;6.050;2022-08-19T04:11:45;16.20;99.90
37412;DHT22;23278;52.110;6.050;2022-08-19T04:14:15;16.20;99.90
37412;DHT22;23278;52.110;6.050;2022-08-19T04:16:42;16.20;99.90
37412;DHT22;23278;52.110;6.050;2022-08-19T04:19:10;16.20;99.90
37412;DHT22;23278;52.110;6.050;2022-08-19T04:21:36;16.20;99.90
37412;DHT22;23278;52.110;6.050;2022-08-19T04:24:03;16.10;99.90
37412;DHT22;23278;52.110;6.050;2022-08-19T04:26:32;16.10;99.90
37412;DHT22;23278;52.110;6.050;2022-08-19T04:29:00;16.00;99.90
37412;DHT22;23278;52.110;6.050;2022-08-19T04:31:28;16.00;99.90
37412;DHT22;23278;52.110;6.050;2022-08-19T04:34:00;15.90;99.90
37412;DHT22;23278;52.110;6.050;2022-08-19T04:36:32;15.90;99.90
37412;DHT22;23278;52.110;6.050;2022-08-19T04:39:01;15.90;99.90
37412;DHT22;23278;52.110;6.050;2022-08-19T04:41:28;15.80;99.90
37412;DHT22;23278;52.110;6.050;2022-08-19T04:44:13;15.80;99.90
37412;DHT22;23278;52.110;6.050;2022-08-19T04:46:40;15.80;99.90
37412;DHT22;23278;52.110;6.050;2022-08-19T04:49:07;15.80;99.90
37412;DHT22;23278;52.110;6.050;2022-08-19T04:51:34;15.80;99.90
37412;DHT22;23278;52.110;6.050;2022-08-19T04:54:04;15.70;99.90
37412;DHT22;23278;52.110;6.050;2022-08-19T04:56:29;15.70;99.90
37412;DHT22;23278;52.110;6.050;2022-08-19T04:58:56;15.70;99.90
37412;DHT22;23278;52.110;6.050;2022-08-19T05:01:25;15.70;99.90
37412;DHT22;23278;52.110;6.050;2022-08-19T05:03:51;15.70;99.90
37412;DHT22;23278;52.110;6.050;2022-08-19T05:06:19;15.70;99.90
37412;DHT22;23278;52.110;6.050;2022-08-19T05:08:46;15.70;99.90
37412;DHT22;23278;52.110;6.050;2022-08-19T05:11:22;15.70;99.90
37412;DHT22;23278;52.110;6.050;2022-08-19T05:13:48;15.70;99.90
37412;DHT22;23278;52.110;6.050;2022-08-19T05:16:17;15.70;99.90
37412;DHT22;23278;52.110;6.050;2022-08-19T05:18:44;15.70;99.90
37412;DHT22;23278;52.110;6.050;2022-08-19T05:21:30;15.60;99.90
37412;DHT22;23278;52.110;6.050;2022-08-19T05:24:15;15.70;99.90
37412;DHT22;23278;52.110;6.050;2022-08-19T05:26:43;15.60;99.90
37412;DHT22;23278;52.110;6.050;2022-08-19T05:29:13;15.60;99.90
37412;DHT22;23278;52.110;6.050;2022-08-19T05:31:40;15.70;99.90
37412;DHT22;23278;52.110;6.050;2022-08-19T05:34:06;15.70;99.90
37412;DHT22;23278;52.110;6.050;2022-08-19T05:36:42;15.80;99.90
37412;DHT22;23278;52.110;6.050;2022-08-19T05:39:12;15.80;99.90
37412;DHT22;23278;52.110;6.050;2022-08-19T05:41:47;15.80;99.90
37412;DHT22;23278;52.110;6.050;2022-08-19T05:44:14;15.90;99.90
37412;DHT22;23278;52.110;6.050;2022-08-19T05:46:43;16.00;99.90
37412;DHT22;23278;52.110;6.050;2022-08-19T05:49:13;16.10;99.90
37412;DHT22;23278;52.110;6.050;2022-08-19T05:51:39;16.10;99.90
37412;DHT22;23278;52.110;6.050;2022-08-19T05:54:06;16.20;99.90
37412;DHT22;23278;52.110;6.050;2022-08-19T05:56:33;16.30;99.90
37412;DHT22;23278;52.110;6.050;2022-08-19T05:59:02;16.30;99.90
37412;DHT22;23278;52.110;6.050;2022-08-19T06:01:29;16.40;99.90
37412;DHT22;23278;52.110;6.050;2022-08-19T06:03:55;16.40;99.90
37412;DHT22;23278;52.110;6.050;2022-08-19T06:06:21;16.60;99.90
37412;DHT22;23278;52.110;6.050;2022-08-19T06:08:47;16.60;99.90
37412;DHT22;23278;52.110;6.050;2022-08-19T06:11:40;16.70;99.90
37412;DHT22;23278;52.110;6.050;2022-08-19T06:14:09;16.70;99.90
37412;DHT22;23278;52.110;6.050;2022-08-19T06:16:37;16.90;99.90
37412;DHT22;23278;52.110;6.050;2022-08-19T06:19:09;17.00;99.90
37412;DHT22;23278;52.110;6.050;2022-08-19T06:21:37;17.10;99.90
37412;DHT22;23278;52.110;6.050;2022-08-19T06:24:09;17.10;99.90
37412;DHT22;23278;52.110;6.050;2022-08-19T06:26:37;17.20;99.90
37412;DHT22;23278;52.110;6.050;2022-08-19T06:29:04;17.30;99.90
37412;DHT22;23278;52.110;6.050;2022-08-19T06:31:33;17.40;99.90
37412;DHT22;23278;52.110;6.050;2022-08-19T06:34:01;17.60;99.90
37412;DHT22;23278;52.110;6.050;2022-08-19T06:36:40;17.70;99.90
37412;DHT22;23278;52.110;6.050;2022-08-19T06:39:10;17.80;99.90
37412;DHT22;23278;52.110;6.050;2022-08-19T06:41:44;17.90;99.90
37412;DHT22;23278;52.110;6.050;2022-08-19T06:44:17;18.00;99.90
37412;DHT22;23278;52.110;6.050;2022-08-19T06:46:44;18.20;99.90
37412;DHT22;23278;52.110;6.050;2022-08-19T06:49:11;18.30;99.90
37412;DHT22;23278;52.110;6.050;2022-08-19T06:51:41;18.40;99.90
37412;DHT22;23278;52.110;6.050;2022-08-19T06:54:07;18.60;99.90
37412;DHT22;23278;52.110;6.050;2022-08-19T06:56:33;18.70;99.90
37412;DHT22;23278;52.110;6.050;2022-08-19T06:59:04;18.80;99.90
37412;DHT22;23278;52.110;6.050;2022-08-19T07:01:35;18.90;99.90
37412;DHT22;23278;52.110;6.050;2022-08-19T07:04:06;19.10;99.90
37412;DHT22;23278;52.110;6.050;2022-08-19T07:06:34;19.10;99.90
37412;DHT22;23278;52.110;6.050;2022-08-19T07:09:01;19.30;99.90
37412;DHT22;23278;52.110;6.050;2022-08-19T07:11:26;19.30;99.90
37412;DHT22;23278;52.110;6.050;2022-08-19T07:13:53;19.40;99.90
37412;DHT22;23278;52.110;6.050;2022-08-19T07:16:19;19.50;99.90
37412;DHT22;23278;52.110;6.050;2022-08-19T07:18:50;19.60;99.90
37412;DHT22;23278;52.110;6.050;2022-08-19T07:21:20;19.70;99.90
37412;DHT22;23278;52.110;6.050;2022-08-19T07:23:47;19.80;99.90
37412;DHT22;23278;52.110;6.050;2022-08-19T07:26:21;19.90;99.90
37412;DHT22;23278;52.110;6.050;2022-08-19T07:28:49;20.00;99.90
37412;DHT22;23278;52.110;6.050;2022-08-19T07:31:21;20.10;99.90
37412;DHT22;23278;52.110;6.050;2022-08-19T07:33:48;20.20;99.90
37412;DHT22;23278;52.110;6.050;2022-08-19T07:36:18;20.30;99.90
37412;DHT22;23278;52.110;6.050;2022-08-19T07:38:45;20.40;99.90
37412;DHT22;23278;52.110;6.050;2022-08-19T07:41:18;20.50;99.90
37412;DHT22;23278;52.110;6.050;2022-08-19T07:43:44;20.60;99.90
37412;DHT22;23278;52.110;6.050;2022-08-19T07:46:11;20.70;99.90
37412;DHT22;23278;52.110;6.050;2022-08-19T07:48:40;20.70;99.90
37412;DHT22;23278;52.110;6.050;2022-08-19T07:51:08;20.80;99.90
37412;DHT22;23278;52.110;6.050;2022-08-19T07:53:35;20.90;99.70
37412;DHT22;23278;52.110;6.050;2022-08-19T07:56:02;21.00;99.60
37412;DHT22;23278;52.110;6.050;2022-08-19T07:58:33;21.10;99.40
37412;DHT22;23278;52.110;6.050;2022-08-19T08:01:00;21.20;99.40
37412;DHT22;23278;52.110;6.050;2022-08-19T08:03:28;21.30;99.30
37412;DHT22;23278;52.110;6.050;2022-08-19T08:06:14;21.40;99.00
37412;DHT22;23278;52.110;6.050;2022-08-19T08:09:00;21.50;98.60
37412;DHT22;23278;52.110;6.050;2022-08-19T08:11:48;21.60;98.20
37412;DHT22;23278;52.110;6.050;2022-08-19T08:14:25;21.70;97.70
37412;DHT22;23278;52.110;6.050;2022-08-19T08:16:52;21.70;97.30
37412;DHT22;23278;52.110;6.050;2022-08-19T08:19:20;21.70;97.00
37412;DHT22;23278;52.110;6.050;2022-08-19T08:21:47;21.80;96.90
37412;DHT22;23278;52.110;6.050;2022-08-19T08:24:14;21.80;96.90
37412;DHT22;23278;52.110;6.050;2022-08-19T08:26:40;21.90;97.00
37412;DHT22;23278;52.110;6.050;2022-08-19T08:29:07;22.10;96.90
37412;DHT22;23278;52.110;6.050;2022-08-19T08:31:35;22.20;96.70
37412;DHT22;23278;52.110;6.050;2022-08-19T08:34:01;22.20;95.80
37412;DHT22;23278;52.110;6.050;2022-08-19T08:36:27;22.30;95.50
37412;DHT22;23278;52.110;6.050;2022-08-19T08:38:53;22.40;95.10
37412;DHT22;23278;52.110;6.050;2022-08-19T08:43:51;22.50;94.90
37412;DHT22;23278;52.110;6.050;2022-08-19T08:47:05;22.60;94.00
37412;DHT22;23278;52.110;6.050;2022-08-19T08:49:29;22.60;93.40
37412;DHT22;23278;52.110;6.050;2022-08-19T08:54:30;22.80;92.70
37412;DHT22;23278;52.110;6.050;2022-08-19T08:56:57;22.90;92.20
37412;DHT22;23278;52.110;6.050;2022-08-19T08:59:35;22.90;91.80
37412;DHT22;23278;52.110;6.050;2022-08-19T09:02:02;23.00;91.90
37412;DHT22;23278;52.110;6.050;2022-08-19T09:04:28;23.20;91.50
37412;DHT22;23278;52.110;6.050;2022-08-19T09:06:57;23.40;91.00
37412;DHT22;23278;52.110;6.050;2022-08-19T09:09:44;23.70;89.90
37412;DHT22;23278;52.110;6.050;2022-08-19T09:12:24;23.90;88.70
37412;DHT22;23278;52.110;6.050;2022-08-19T09:14:58;24.20;88.20
37412;DHT22;23278;52.110;6.050;2022-08-19T09:17:27;24.50;87.30
37412;DHT22;23278;52.110;6.050;2022-08-19T09:20:21;24.90;85.30
37412;DHT22;23278;52.110;6.050;2022-08-19T09:22:47;25.30;84.40
37412;DHT22;23278;52.110;6.050;2022-08-19T09:25:18;25.60;80.40
37412;DHT22;23278;52.110;6.050;2022-08-19T09:27:44;25.90;77.50
37412;DHT22;23278;52.110;6.050;2022-08-19T09:30:17;26.20;76.00
37412;DHT22;23278;52.110;6.050;2022-08-19T09:32:43;26.50;75.30
37412;DHT22;23278;52.110;6.050;2022-08-19T09:35:10;26.90;74.90
37412;DHT22;23278;52.110;6.050;2022-08-19T09:37:37;27.50;73.50
37412;DHT22;23278;52.110;6.050;2022-08-19T09:40:04;27.90;71.10
37412;DHT22;23278;52.110;6.050;2022-08-19T09:42:30;28.30;68.20
37412;DHT22;23278;52.110;6.050;2022-08-19T09:44:56;28.60;66.50
37412;DHT22;23278;52.110;6.050;2022-08-19T09:47:22;29.00;64.20
37412;DHT22;23278;52.110;6.050;2022-08-19T09:49:48;29.30;61.40
37412;DHT22;23278;52.110;6.050;2022-08-19T09:52:16;29.50;60.00
37412;DHT22;23278;52.110;6.050;2022-08-19T09:54:43;29.80;59.80
37412;DHT22;23278;52.110;6.050;2022-08-19T09:57:09;30.10;57.80
37412;DHT22;23278;52.110;6.050;2022-08-19T09:59:35;30.40;57.80
37412;DHT22;23278;52.110;6.050;2022-08-19T10:02:01;31.10;56.90
37412;DHT22;23278;52.110;6.050;2022-08-19T10:04:27;31.60;55.00
37412;DHT22;23278;52.110;6.050;2022-08-19T10:07:13;32.00;54.10
37412;DHT22;23278;52.110;6.050;2022-08-19T10:09:39;32.70;52.80
37412;DHT22;23278;52.110;6.050;2022-08-19T10:12:07;33.40;50.20
37412;DHT22;23278;52.110;6.050;2022-08-19T10:14:34;33.80;48.90
37412;DHT22;23278;52.110;6.050;2022-08-19T10:17:01;34.00;47.50
37412;DHT22;23278;52.110;6.050;2022-08-19T10:19:28;33.60;47.30
37412;DHT22;23278;52.110;6.050;2022-08-19T10:22:03;33.50;47.50
37412;DHT22;23278;52.110;6.050;2022-08-19T10:24:30;34.00;46.90
37412;DHT22;23278;52.110;6.050;2022-08-19T10:26:57;34.40;46.20
37412;DHT22;23278;52.110;6.050;2022-08-19T10:29:23;34.30;45.70
37412;DHT22;23278;52.110;6.050;2022-08-19T10:31:49;34.60;45.10
37412;DHT22;23278;52.110;6.050;2022-08-19T10:34:14;35.10;44.60
37412;DHT22;23278;52.110;6.050;2022-08-19T10:36:40;35.50;43.80
37412;DHT22;23278;52.110;6.050;2022-08-19T10:39:09;35.90;43.80
37412;DHT22;23278;52.110;6.050;2022-08-19T10:41:37;36.80;43.90
37412;DHT22;23278;52.110;6.050;2022-08-19T10:44:07;37.10;41.60
37412;DHT22;23278;52.110;6.050;2022-08-19T10:46:36;37.10;41.60
37412;DHT22;23278;52.110;6.050;2022-08-19T10:49:04;36.10;42.50
37412;DHT22;23278;52.110;6.050;2022-08-19T10:51:31;35.50;43.10
37412;DHT22;23278;52.110;6.050;2022-08-19T10:54:16;36.00;41.70
37412;DHT22;23278;52.110;6.050;2022-08-19T10:56:42;36.90;41.00
37412;DHT22;23278;52.110;6.050;2022-08-19T10:59:24;37.80;39.90
37412;DHT22;23278;52.110;6.050;2022-08-19T11:01:51;37.60;39.90
37412;DHT22;23278;52.110;6.050;2022-08-19T11:04:18;37.80;39.90
37412;DHT22;23278;52.110;6.050;2022-08-19T11:06:46;38.20;39.70
37412;DHT22;23278;52.110;6.050;2022-08-19T11:09:18;37.90;40.10
37412;DHT22;23278;52.110;6.050;2022-08-19T11:11:45;38.50;38.90
37412;DHT22;23278;52.110;6.050;2022-08-19T11:14:14;39.40;38.10
37412;DHT22;23278;52.110;6.050;2022-08-19T11:16:41;40.20;37.70
37412;DHT22;23278;52.110;6.050;2022-08-19T11:19:10;40.80;36.30
37412;DHT22;23278;52.110;6.050;2022-08-19T11:21:39;41.60;35.90
37412;DHT22;23278;52.110;6.050;2022-08-19T11:24:08;42.40;35.40
37412;DHT22;23278;52.110;6.050;2022-08-19T11:26:36;43.40;34.70
37412;DHT22;23278;52.110;6.050;2022-08-19T11:29:04;44.30;34.60
37412;DHT22;23278;52.110;6.050;2022-08-19T11:31:32;44.90;33.80
37412;DHT22;23278;52.110;6.050;2022-08-19T11:34:00;44.90;33.50
37412;DHT22;23278;52.110;6.050;2022-08-19T11:36:27;44.50;33.30
37412;DHT22;23278;52.110;6.050;2022-08-19T11:38:54;44.30;33.60
37412;DHT22;23278;52.110;6.050;2022-08-19T11:41:22;42.90;34.70
37412;DHT22;23278;52.110;6.050;2022-08-19T11:43:50;41.70;35.50
37412;DHT22;23278;52.110;6.050;2022-08-19T11:46:17;41.50;35.70
37412;DHT22;23278;52.110;6.050;2022-08-19T11:48:43;42.20;34.60
37412;DHT22;23278;52.110;6.050;2022-08-19T11:51:15;43.30;34.20
37412;DHT22;23278;52.110;6.050;2022-08-19T11:53:42;44.30;33.40
37412;DHT22;23278;52.110;6.050;2022-08-19T11:56:09;45.30;33.10
37412;DHT22;23278;52.110;6.050;2022-08-19T11:58:35;46.10;32.20
37412;DHT22;23278;52.110;6.050;2022-08-19T12:01:05;46.20;32.10
37412;DHT22;23278;52.110;6.050;2022-08-19T12:03:31;46.80;32.00
37412;DHT22;23278;52.110;6.050;2022-08-19T12:05:57;47.30;31.90
37412;DHT22;23278;52.110;6.050;2022-08-19T12:08:23;47.70;31.50
37412;DHT22;23278;52.110;6.050;2022-08-19T12:10:49;47.90;31.10
37412;DHT22;23278;52.110;6.050;2022-08-19T12:13:15;47.40;31.30
37412;DHT22;23278;52.110;6.050;2022-08-19T12:15:45;47.00;31.10
37412;DHT22;23278;52.110;6.050;2022-08-19T12:18:12;46.50;31.30
37412;DHT22;23278;52.110;6.050;2022-08-19T12:20:41;46.40;31.50
37412;DHT22;23278;52.110;6.050;2022-08-19T12:23:09;46.80;31.10
37412;DHT22;23278;52.110;6.050;2022-08-19T12:25:36;46.80;30.60
37412;DHT22;23278;52.110;6.050;2022-08-19T12:28:03;46.90;30.50
37412;DHT22;23278;52.110;6.050;2022-08-19T12:30:29;47.20;30.90
37412;DHT22;23278;52.110;6.050;2022-08-19T12:32:55;47.70;30.60
37412;DHT22;23278;52.110;6.050;2022-08-19T12:35:22;47.00;31.20
37412;DHT22;23278;52.110;6.050;2022-08-19T12:37:48;45.20;32.50
37412;DHT22;23278;52.110;6.050;2022-08-19T12:40:17;43.50;33.30
37412;DHT22;23278;52.110;6.050;2022-08-19T12:42:44;41.90;34.40
37412;DHT22;23278;52.110;6.050;2022-08-19T12:45:12;40.90;35.10
37412;DHT22;23278;52.110;6.050;2022-08-19T12:47:39;41.80;34.10
37412;DHT22;23278;52.110;6.050;2022-08-19T12:50:06;43.40;32.80
37412;DHT22;23278;52.110;6.050;2022-08-19T12:52:35;44.30;32.10
37412;DHT22;23278;52.110;6.050;2022-08-19T12:55:05;45.40;31.80
37412;DHT22;23278;52.110;6.050;2022-08-19T12:57:31;46.70;31.30
37412;DHT22;23278;52.110;6.050;2022-08-19T13:00:09;47.40;30.70
37412;DHT22;23278;52.110;6.050;2022-08-19T13:02:38;47.80;30.40
37412;DHT22;23278;52.110;6.050;2022-08-19T13:05:06;47.90;30.20
37412;DHT22;23278;52.110;6.050;2022-08-19T13:07:38;48.20;30.10
37412;DHT22;23278;52.110;6.050;2022-08-19T13:10:06;48.80;29.70
37412;DHT22;23278;52.110;6.050;2022-08-19T13:12:33;49.00;29.90
37412;DHT22;23278;52.110;6.050;2022-08-19T13:14:59;48.70;30.10
37412;DHT22;23278;52.110;6.050;2022-08-19T13:17:25;48.70;30.00
37412;DHT22;23278;52.110;6.050;2022-08-19T13:19:51;48.90;29.90
37412;DHT22;23278;52.110;6.050;2022-08-19T13:22:17;47.80;30.70
37412;DHT22;23278;52.110;6.050;2022-08-19T13:24:43;46.70;30.80
37412;DHT22;23278;52.110;6.050;2022-08-19T13:27:09;47.00;30.50
37412;DHT22;23278;52.110;6.050;2022-08-19T13:29:35;47.50;30.20
37412;DHT22;23278;52.110;6.050;2022-08-19T13:32:19;47.90;30.00
37412;DHT22;23278;52.110;6.050;2022-08-19T13:35:04;48.10;30.00
37412;DHT22;23278;52.110;6.050;2022-08-19T13:37:30;46.90;30.80
37412;DHT22;23278;52.110;6.050;2022-08-19T13:40:12;46.90;30.90
37412;DHT22;23278;52.110;6.050;2022-08-19T13:42:42;46.70;31.20
37412;DHT22;23278;52.110;6.050;2022-08-19T13:45:08;46.60;31.40
37412;DHT22;23278;52.110;6.050;2022-08-19T13:47:35;46.50;31.20
37412;DHT22;23278;52.110;6.050;2022-08-19T13:50:04;46.40;31.30
37412;DHT22;23278;52.110;6.050;2022-08-19T13:52:30;45.20;32.40
37412;DHT22;23278;52.110;6.050;2022-08-19T13:54:56;44.00;32.80
37412;DHT22;23278;52.110;6.050;2022-08-19T13:57:22;43.20;33.50
37412;DHT22;23278;52.110;6.050;2022-08-19T13:59:48;43.10;33.40
37412;DHT22;23278;52.110;6.050;2022-08-19T14:02:14;43.10;33.60
37412;DHT22;23278;52.110;6.050;2022-08-19T14:04:40;42.90;34.00
37412;DHT22;23278;52.110;6.050;2022-08-19T14:07:06;42.60;34.00
37412;DHT22;23278;52.110;6.050;2022-08-19T14:09:32;42.50;33.80
37412;DHT22;23278;52.110;6.050;2022-08-19T14:11:58;42.30;33.60
37412;DHT22;23278;52.110;6.050;2022-08-19T14:14:24;43.30;32.80
37412;DHT22;23278;52.110;6.050;2022-08-19T14:16:50;43.10;33.00
37412;DHT22;23278;52.110;6.050;2022-08-19T14:19:17;41.70;34.10
37412;DHT22;23278;52.110;6.050;2022-08-19T14:21:43;40.50;35.20
37412;DHT22;23278;52.110;6.050;2022-08-19T14:24:09;39.50;36.10
37412;DHT22;23278;52.110;6.050;2022-08-19T14:26:35;38.40;37.00
37412;DHT22;23278;52.110;6.050;2022-08-19T14:29:01;37.40;38.10
37412;DHT22;23278;52.110;6.050;2022-08-19T14:31:27;36.50;39.30
37412;DHT22;23278;52.110;6.050;2022-08-19T14:33:53;35.80;40.60
37412;DHT22;23278;52.110;6.050;2022-08-19T14:36:19;35.20;41.30
37412;DHT22;23278;52.110;6.050;2022-08-19T14:38:47;34.70;42.70
37412;DHT22;23278;52.110;6.050;2022-08-19T14:41:20;34.20;44.70
37412;DHT22;23278;52.110;6.050;2022-08-19T14:43:49;33.70;46.80
37412;DHT22;23278;52.110;6.050;2022-08-19T14:46:18;33.10;47.40
37412;DHT22;23278;52.110;6.050;2022-08-19T14:48:46;32.60;48.70
37412;DHT22;23278;52.110;6.050;2022-08-19T14:51:12;32.00;50.60
37412;DHT22;23278;52.110;6.050;2022-08-19T14:53:38;31.50;52.10
37412;DHT22;23278;52.110;6.050;2022-08-19T14:56:10;31.00;53.10
37412;DHT22;23278;52.110;6.050;2022-08-19T14:58:36;30.70;53.80
37412;DHT22;23278;52.110;6.050;2022-08-19T15:01:02;30.60;54.40
37412;DHT22;23278;52.110;6.050;2022-08-19T15:03:29;30.50;55.10
37412;DHT22;23278;52.110;6.050;2022-08-19T15:05:56;30.40;55.30
37412;DHT22;23278;52.110;6.050;2022-08-19T15:08:23;30.30;55.80
37412;DHT22;23278;52.110;6.050;2022-08-19T15:10:52;30.20;56.30
37412;DHT22;23278;52.110;6.050;2022-08-19T15:13:18;30.30;56.60
37412;DHT22;23278;52.110;6.050;2022-08-19T15:15:44;30.10;57.10
37412;DHT22;23278;52.110;6.050;2022-08-19T15:18:13;30.00;57.90
37412;DHT22;23278;52.110;6.050;2022-08-19T15:20:39;29.70;58.60
37412;DHT22;23278;52.110;6.050;2022-08-19T15:23:06;29.40;59.50
37412;DHT22;23278;52.110;6.050;2022-08-19T15:25:32;29.10;60.10
37412;DHT22;23278;52.110;6.050;2022-08-19T15:27:59;28.90;60.60
37412;DHT22;23278;52.110;6.050;2022-08-19T15:30:27;28.70;60.90
37412;DHT22;23278;52.110;6.050;2022-08-19T15:32:55;28.60;61.50
37412;DHT22;23278;52.110;6.050;2022-08-19T15:35:22;28.30;62.00
37412;DHT22;23278;52.110;6.050;2022-08-19T15:37:50;28.10;62.30
37412;DHT22;23278;52.110;6.050;2022-08-19T15:40:17;27.90;62.30
37412;DHT22;23278;52.110;6.050;2022-08-19T15:42:43;27.80;62.80